M I D A S
Marine Information and Data Acquisition System
Tripno 361 of the Zeeleeuw from 2002-11-20 07:24:24 to 2002-11-20 17:15:09
Back to CruiseResearch ActivitiesStationsMapUnderway DataData graphs

EquipmentUnitsComment
TimeDGPSUTC
LatitudeDGPSDM.mWGS84
LongitudeDGPSDM.mWGS84
TemperatureSBE03/SBE38deg celciusITS90
ConductivitySBE21S/mITS90
SalinitySBE21 Practical Salinity Units
ChlorophylAChelsea fluorimeterg/lCalibrated in Aceton
Missing or incorrect values are displayed as -999
Sea surface data collected by the RV Zeeleeuw from 2002-11-20 07:24:24 to 2002-11-20 17:15:09
                                                                                    Next 1000 lines
Time Latitude Longitude Temperature Conductivity Salinity ChlorophylA
2002-11-20 07:24:32 51°14.401 2°55.028 10.463594 3.220889 28.529352  
2002-11-20 07:24:38 51°14.412 2°55.009 10.461731 3.232366 28.632382  
2002-11-20 07:24:43 51°14.421 2°54.993 10.450785 3.252164 28.818879  
2002-11-20 07:24:48 51°14.43 2°54.977 10.450785 3.252164 28.818879  
2002-11-20 07:24:53 51°14.439 2°54.959 10.436018 3.262168 28.906818  
2002-11-20 07:24:58 51°14.449 2°54.941 10.417146 3.285968 29.136527  
2002-11-20 07:25:03 51°14.46 2°54.923 10.420828 3.298605 29.254184  
2002-11-20 07:25:08 51°14.471 2°54.906 10.426187 3.323776 29.498271  
2002-11-20 07:25:13 51°14.482 2°54.889 10.453767 3.336415 29.62451  
2002-11-20 07:25:18 51°14.494 2°54.872 10.453767 3.336415 29.62451  
2002-11-20 07:25:23 51°14.507 2°54.856 10.508193 3.347474 29.739876  
2002-11-20 07:25:28 51°14.52 2°54.84 10.550623 3.363905 29.910252  
2002-11-20 07:25:32 51°14.53 2°54.827 10.60576 3.372647 30.003693  
2002-11-20 07:25:38 51°14.546 2°54.808 10.648219 3.378651 30.064226  
2002-11-20 07:25:43 51°14.56 2°54.793 10.694828 3.386656 30.134556  
2002-11-20 07:25:48 51°14.574 2°54.777 10.694828 3.386656 30.134556  
2002-11-20 07:25:53 51°14.587 2°54.762 10.734494 3.412252 30.365082  
2002-11-20 07:25:58 51°14.601 2°54.746 10.767971 3.459338 30.79764  
2002-11-20 07:26:04 51°14.617 2°54.727 10.785676 3.478827 30.96365  
2002-11-20 07:26:08 51°14.628 2°54.714 10.805693 3.529396 31.42363  
2002-11-20 07:26:14 51°14.644 2°54.694 10.824824 3.558474 31.668188  
2002-11-20 07:26:18 51°14.655 2°54.681 10.824824 3.558474 31.668188  
2002-11-20 07:26:23 51°14.669 2°54.664 10.833067 3.586079 31.904865  
2002-11-20 07:26:28 51°14.682 2°54.648 10.838161 3.611262 32.122301  
2002-11-20 07:26:33 51°14.696 2°54.632 10.842051 3.633074 32.314021  
2002-11-20 07:26:38 51°14.71 2°54.616 10.846079 3.65183 32.478989  
2002-11-20 07:26:43 51°14.724 2°54.6 10.849366 3.66163 32.557441  
2002-11-20 07:26:48 51°14.738 2°54.584 10.849366 3.66163 32.557441  
2002-11-20 07:26:54 51°14.754 2°54.565 10.855616 3.672274 32.647034  
2002-11-20 07:26:58 51°14.765 2°54.552 10.858162 3.671957 32.63322  
2002-11-20 07:27:04 51°14.781 2°54.532 10.862745 3.688081 32.787661  
2002-11-20 07:27:08 51°14.793 2°54.519 10.864226 3.691558 32.815617  
2002-11-20 07:27:14 51°14.809 2°54.499 10.867975 3.699673 32.892302  
2002-11-20 07:27:18 51°14.82 2°54.486 10.867975 3.699673 32.892302  
2002-11-20 07:27:24 51°14.836 2°54.467 10.87427 3.704837 32.936928  
2002-11-20 07:27:28 51°14.847 2°54.454 10.875334 3.708104 32.964937  
2002-11-20 07:27:33 51°14.861 2°54.44 10.879083 3.710738 32.988127  
2002-11-20 07:27:38 51°14.875 2°54.425 10.880517 3.712741 33.006499  
2002-11-20 07:27:43 51°14.89 2°54.41 10.880517 3.712741 33.006499  
2002-11-20 07:27:48 51°14.904 2°54.396 10.883201 3.717272 33.047016  
2002-11-20 07:27:52 51°14.916 2°54.385 10.8857 3.720223 33.072611  
2002-11-20 07:27:58 51°14.933 2°54.369 10.887366 3.721382 33.079755  
2002-11-20 07:28:03 51°14.947 2°54.355 10.888291 3.722436 33.087297  
2002-11-20 07:28:08 51°14.961 2°54.341 10.888383 3.72212 33.082006  
2002-11-20 07:28:14 51°14.978 2°54.324 10.892455 3.727706 33.134382  
2002-11-20 07:28:18 51°14.989 2°54.312 10.892455 3.727706 33.134382  
2002-11-20 07:28:23 51°15.003 2°54.297 10.890466 3.730762 33.162456  
2002-11-20 07:28:28 51°15.017 2°54.282 10.890373 3.732553 33.177293  
2002-11-20 07:28:34 51°15.033 2°54.265 10.891946 3.733291 33.184593  
2002-11-20 07:28:38 51°15.044 2°54.253 10.892455 3.734767 33.19847  
2002-11-20 07:28:44 51°15.061 2°54.236 10.890604 3.734556 33.194214  
2002-11-20 07:28:48 51°15.072 2°54.224 10.890604 3.734556 33.194214  
2002-11-20 07:28:53 51°15.087 2°54.21 10.890789 3.725492 33.104549  
2002-11-20 07:28:58 51°15.101 2°54.196 10.890327 3.737928 33.225416  
2002-11-20 07:29:03 51°15.115 2°54.182 10.888661 3.737401 33.220201  
2002-11-20 07:29:08 51°15.129 2°54.167 10.887551 3.739193 33.237931  
2002-11-20 07:29:12 51°15.141 2°54.156 10.885006 3.740879 33.25462  
2002-11-20 07:29:18 51°15.158 2°54.138 10.885006 3.740879 33.25462  
2002-11-20 07:29:24 51°15.175 2°54.12 10.885468 3.741617 33.261921  
2002-11-20 07:29:28 51°15.186 2°54.108 10.882738 3.739931 33.245957  
2002-11-20 07:29:34 51°15.203 2°54.089 10.883294 3.740352 33.24868  
2002-11-20 07:29:38 51°15.214 2°54.077 10.887875 3.742039 33.268268  
2002-11-20 07:29:43 51°15.228 2°54.061 10.887875 3.742039 33.268268  
2002-11-20 07:29:48 51°15.243 2°54.046 10.882553 3.741406 33.261284  
2002-11-20 07:29:52 51°15.254 2°54.034 10.880425 3.740879 33.257518  
2002-11-20 07:29:58 51°15.271 2°54.016 10.878527 3.74383 33.28963  
2002-11-20 07:30:03 51°15.286 2°54.001 10.877278 3.742566 33.277835  
2002-11-20 07:30:08 51°15.3 2°53.987 10.874131 3.72897 33.141117  
2002-11-20 07:30:14 51°15.317 2°53.969 10.875751 3.734767 33.199917  
2002-11-20 07:30:18 51°15.328 2°53.956 10.875751 3.734767 33.199917  
2002-11-20 07:30:24 51°15.346 2°53.938 10.872974 3.744041 33.293893  
2002-11-20 07:30:28 51°15.357 2°53.925 10.870289 3.744252 33.297432  
2002-11-20 07:30:33 51°15.371 2°53.91 10.866633 3.745095 33.306506  
2002-11-20 07:30:38 51°15.385 2°53.894 10.86293 3.741828 33.276333  
2002-11-20 07:30:43 51°15.399 2°53.879 10.86293 3.741828 33.276333  
2002-11-20 07:30:48 51°15.414 2°53.864 10.860245 3.743514 33.295207  
2002-11-20 07:30:53 51°15.428 2°53.85 10.858208 3.742987 33.290714  
2002-11-20 07:30:58 51°15.442 2°53.835 10.853394 3.74246 33.288399  
2002-11-20 07:31:03 51°15.456 2°53.82 10.845153 3.737612 33.241118  
2002-11-20 07:31:08 51°15.471 2°53.804 10.843764 3.742039 33.288579  
2002-11-20 07:31:13 51°15.485 2°53.789 10.842282 3.740563 33.274691  
2002-11-20 07:31:18 51°15.499 2°53.772 10.842282 3.740563 33.274691  
2002-11-20 07:31:23 51°15.513 2°53.757 10.84256 3.741301 33.284901  
2002-11-20 07:31:28 51°15.527 2°53.741 10.839921 3.741934 33.294069  
2002-11-20 07:31:32 51°15.538 2°53.729 10.839874 3.740142 33.280676  
2002-11-20 07:31:38 51°15.555 2°53.71 10.837235 3.740037 33.283988  
2002-11-20 07:31:43 51°15.569 2°53.695 10.837235 3.740037 33.283988  
2002-11-20 07:31:48 51°15.583 2°53.68 10.835753 3.73951 33.280945  
2002-11-20 07:31:53 51°15.598 2°53.665 10.834873 3.740669 33.293159  
2002-11-20 07:31:58 51°15.612 2°53.65 10.836077 3.740669 33.296791  
2002-11-20 07:32:03 51°15.626 2°53.635 10.838809 3.741091 33.301696  
2002-11-20 07:32:08 51°15.64 2°53.619 14.845417 3.740985 33.301378  
2002-11-20 07:32:12 51°15.651 2°53.607 10.834364 3.740985 33.302831  
2002-11-20 07:32:18 51°15.668 2°53.588 10.834364 3.740985 33.302831  
2002-11-20 07:32:23 51°15.683 2°53.572 10.834225 3.742145 33.316503  
2002-11-20 07:32:28 51°15.697 2°53.556 10.834735 3.741196 33.307101  
2002-11-20 07:32:32 51°15.709 2°53.543 10.835522 3.740458 33.299062  
2002-11-20 07:32:38 51°15.726 2°53.524 10.835151 3.741196 33.306374  
2002-11-20 07:32:43 51°15.741 2°53.508 10.835151 3.741196 33.306374  
2002-11-20 07:32:48 51°15.757 2°53.492 10.836541 3.742356 33.318592  
2002-11-20 07:32:53 51°15.772 2°53.475 10.833299 3.742882 33.325271  
2002-11-20 07:32:58 51°15.787 2°53.459 10.835429 3.743515 33.331539  
2002-11-20 07:33:03 51°15.803 2°53.442 10.832651 3.738561 33.281713  
2002-11-20 07:33:08 51°15.819 2°53.425 10.83793 3.743831 33.334674  
2002-11-20 07:33:12 51°15.831 2°53.411 10.833299 3.741196 33.309282  
2002-11-20 07:33:18 51°15.85 2°53.391 10.833299 3.741196 33.309282  
2002-11-20 07:33:23 51°15.866 2°53.375 10.835244 3.745939 33.355571  
2002-11-20 07:33:28 51°15.883 2°53.36 10.835429 3.745728 33.354937  
2002-11-20 07:33:33 51°15.899 2°53.343 10.833484 3.748047 33.377927  
2002-11-20 07:33:38 51°15.915 2°53.328 10.832651 3.748468 33.382108  
2002-11-20 07:33:43 51°15.932 2°53.312 10.831493 3.749733 33.39392  
2002-11-20 07:33:48 51°15.948 2°53.296 10.831493 3.749733 33.39392  
2002-11-20 07:33:52 51°15.961 2°53.283 10.830752 3.750682 33.402597  
2002-11-20 07:33:58 51°15.981 2°53.264 10.831493 3.752052 33.416185  
2002-11-20 07:34:03 51°15.998 2°53.247 10.831493 3.754265 33.438865  
2002-11-20 07:34:08 51°16.014 2°53.231 10.833299 3.75416 33.438549  
2002-11-20 07:34:14 51°16.034 2°53.212 10.835429 3.75553 33.45433  
2002-11-20 07:34:18 51°16.047 2°53.199 10.835429 3.75553 33.45433  
2002-11-20 07:34:23 51°16.063 2°53.183 10.83955 3.736454 33.263726  
2002-11-20 07:34:28 51°16.08 2°53.168 10.842097 3.699673 32.900198  
2002-11-20 07:34:33 51°16.097 2°53.152 10.847051 3.69335 32.838353  
2002-11-20 07:34:38 51°16.113 2°53.136 10.85094 3.760589 33.503056  
2002-11-20 07:34:43 51°16.129 2°53.12 10.85094 3.760589 33.503056  
2002-11-20 07:34:48 51°16.146 2°53.104 10.854783 3.764278 33.54039  
2002-11-20 07:34:53 51°16.162 2°53.088 10.86043 3.765648 33.549592  
2002-11-20 07:34:58 51°16.179 2°53.072 10.864272 3.765226 33.544677  
2002-11-20 07:35:04 51°16.199 2°53.053 10.871909 3.756794 33.458842  
2002-11-20 07:35:08 51°16.212 2°53.041 10.87538 3.767545 33.561824  
2002-11-20 07:35:13 51°16.228 2°53.025 10.87538 3.767545 33.561824  
2002-11-20 07:35:18 51°16.245 2°53.009 10.880101 3.767439 33.556384  
2002-11-20 07:35:23 51°16.262 2°52.995 10.886579 3.752578 33.406828  
2002-11-20 07:35:28 51°16.278 2°52.98 10.893103 3.75827 33.458872  
2002-11-20 07:35:32 51°16.292 2°52.97 10.900644 3.768915 33.559307  
2002-11-20 07:35:38 51°16.313 2°52.953 10.907999 3.769336 33.559096  
2002-11-20 07:35:43 51°16.33 2°52.94 10.912948 3.769442 33.556482  
2002-11-20 07:35:48 51°16.347 2°52.927 10.912948 3.769442 33.556482  
2002-11-20 07:35:54 51°16.368 2°52.911 10.919793 3.764172 33.498395  
2002-11-20 07:35:58 51°16.381 2°52.901 10.924973 3.770179 33.552823  
2002-11-20 07:36:03 51°16.398 2°52.887 10.929551 3.768177 33.526398  
2002-11-20 07:36:08 51°16.416 2°52.874 10.933898 3.772076 33.560655  
2002-11-20 07:36:13 51°16.433 2°52.86 10.940417 3.770495 33.538413  
2002-11-20 07:36:18 51°16.449 2°52.848 10.940417 3.770495 33.538413  
2002-11-20 07:36:23 51°16.466 2°52.835 10.94712 3.773025 33.559087  
2002-11-20 07:36:28 51°16.483 2°52.822 10.954424 3.77313 33.555746  
2002-11-20 07:36:33 51°16.5 2°52.809 10.960433 3.774395 33.562427  
2002-11-20 07:36:38 51°16.517 2°52.796 10.96755 3.774711 33.561174  
2002-11-20 07:36:43 51°16.535 2°52.783 10.975868 3.774711 33.556061  
2002-11-20 07:36:48 51°16.552 2°52.77 10.975868 3.774711 33.556061  
2002-11-20 07:36:52 51°16.566 2°52.759 10.983169 3.776819 33.571087  
2002-11-20 07:36:58 51°16.586 2°52.743 10.990607 3.777556 33.573277  
2002-11-20 07:37:04 51°16.606 2°52.726 10.99592 3.77861 33.578597  
2002-11-20 07:37:08 51°16.619 2°52.716 11.001971 3.779137 33.576508  
2002-11-20 07:37:14 51°16.64 2°52.701 11.009176 3.779769 33.578385  
2002-11-20 07:37:18 51°16.654 2°52.693 11.009176 3.779769 33.578385  
2002-11-20 07:37:24 51°16.675 2°52.68 11.017073 3.78114 33.58537  
2002-11-20 07:37:28 51°16.689 2°52.673 11.022615 3.783353 33.599964  
2002-11-20 07:37:33 51°16.706 2°52.664 11.026909 3.784618 33.605902  
2002-11-20 07:37:38 51°16.723 2°52.655 11.03268 3.785355 33.608087  
2002-11-20 07:37:43 51°16.741 2°52.646 11.03268 3.785355 33.608087  
2002-11-20 07:37:48 51°16.758 2°52.638 11.037851 3.786304 33.611626  
2002-11-20 07:37:52 51°16.772 2°52.632 11.044268 3.788412 33.625898  
2002-11-20 07:37:58 51°16.792 2°52.622 11.050914 3.789571 33.632248  
2002-11-20 07:38:04 51°16.813 2°52.613 11.057653 3.789993 33.630574  
2002-11-20 07:38:08 51°16.826 2°52.607 11.062222 3.792944 33.654633  
2002-11-20 07:38:14 51°16.847 2°52.596 11.06822 3.792417 33.644311  
2002-11-20 07:38:18 51°16.86 2°52.589 11.06822 3.792417 33.644311  
2002-11-20 07:38:24 51°16.881 2°52.578 11.073619 3.79463 33.661803  
2002-11-20 07:38:28 51°16.895 2°52.57 11.078971 3.796 33.67023  
2002-11-20 07:38:33 51°16.911 2°52.56 11.083215 3.797054 33.674069  
2002-11-20 07:38:38 51°16.928 2°52.551 11.088382 3.798951 33.687699  
2002-11-20 07:38:43 51°16.945 2°52.542 11.095394 3.800848 33.701326  
2002-11-20 07:38:48 51°16.962 2°52.533 11.095394 3.800848 33.701326  
2002-11-20 07:38:52 51°16.976 2°52.526 11.100559 3.80127 33.700375  
2002-11-20 07:38:58 51°16.997 2°52.517 11.105448 3.803589 33.718163  
2002-11-20 07:39:04 51°17.018 2°52.507 11.109091 3.804537 33.723876  
2002-11-20 07:39:08 51°17.031 2°52.5 11.113564 3.805591 33.729168  
2002-11-20 07:39:14 51°17.052 2°52.49 11.118175 3.805486 33.723011  
2002-11-20 07:39:18 51°17.065 2°52.483 11.118175 3.805486 33.723011  
2002-11-20 07:39:24 51°17.086 2°52.472 11.121772 3.807278 33.735586  
2002-11-20 07:39:28 51°17.1 2°52.464 11.127166 3.809491 33.753052  
2002-11-20 07:39:34 51°17.12 2°52.453 11.130116 3.809385 33.746895  
2002-11-20 07:39:38 51°17.134 2°52.445 11.134726 3.811704 33.765396  
2002-11-20 07:39:43 51°17.151 2°52.436 11.134726 3.811704 33.765396  
2002-11-20 07:39:48 51°17.168 2°52.426 11.138275 3.812548 33.771525  
2002-11-20 07:39:52 51°17.182 2°52.419 11.141779 3.813812 33.781084  
2002-11-20 07:39:58 51°17.202 2°52.409 11.145742 3.814234 33.780856  
2002-11-20 07:40:04 51°17.223 2°52.398 11.14989 3.814866 33.783441  
2002-11-20 07:40:08 51°17.237 2°52.392 11.152932 3.812969 33.760335  
2002-11-20 07:40:14 51°17.258 2°52.382 11.156526 3.817185 33.798276  
2002-11-20 07:40:18 51°17.272 2°52.374 11.156526 3.817185 33.798276  
2002-11-20 07:40:24 51°17.293 2°52.364 11.159107 3.817501 33.797739  
2002-11-20 07:40:28 51°17.307 2°52.356 11.162517 3.818766 33.80656  
2002-11-20 07:40:32 51°17.321 2°52.349 11.16565 3.820347 33.818499  
2002-11-20 07:40:39 51°17.345 2°52.336 11.168829 3.820979 33.821079  
2002-11-20 07:40:43 51°17.359 2°52.329 11.171225 3.820769 33.816806  
2002-11-20 07:40:48 51°17.378 2°52.322 11.171225 3.820769 33.816806  
2002-11-20 07:40:52 51°17.392 2°52.317 11.173897 3.822982 33.835711  
2002-11-20 07:40:58 51°17.414 2°52.311 11.177352 3.781348 33.421834  
2002-11-20 07:41:04 51°17.435 2°52.306 11.179149 3.823614 33.836094  
2002-11-20 07:41:08 51°17.45 2°52.303 11.181314 3.824985 33.84668  
2002-11-20 07:41:14 51°17.471 2°52.299 11.18463 3.826039 33.853415  
2002-11-20 07:41:18 51°17.486 2°52.296 11.18463 3.826039 33.853415  
2002-11-20 07:41:23 51°17.503 2°52.293 11.186473 3.826671 33.856723  
2002-11-20 07:41:28 51°17.521 2°52.291 11.187486 3.82646 33.850986  
2002-11-20 07:41:32 51°17.536 2°52.289 11.191033 3.828147 33.866881  
2002-11-20 07:41:39 51°17.561 2°52.287 11.191171 3.829517 33.876731  
2002-11-20 07:41:43 51°17.575 2°52.287 11.19223 3.82899 33.870071  
2002-11-20 07:41:48 51°17.593 2°52.286 11.19223 3.82899 33.870071  
2002-11-20 07:41:52 51°17.608 2°52.285 11.194257 3.829833 33.87692  
2002-11-20 07:41:58 51°17.629 2°52.285 11.195132 3.83152 33.891349  
2002-11-20 07:42:03 51°17.647 2°52.284 11.195915 3.83173 33.891962  
2002-11-20 07:42:08 51°17.664 2°52.284 11.196651 3.831414 33.887381  
2002-11-20 07:42:13 51°17.682 2°52.283 11.197434 3.833101 33.902541  
2002-11-20 07:42:18 51°17.7 2°52.281 11.197434 3.833101 33.902541  
2002-11-20 07:42:23 51°17.718 2°52.28 11.197342 3.833417 33.905658  
2002-11-20 07:42:28 51°17.736 2°52.279 11.199461 3.833628 33.904806  
2002-11-20 07:42:32 51°17.75 2°52.277 11.199461 3.833522 33.902302  
2002-11-20 07:42:38 51°17.771 2°52.276 11.199369 3.834787 33.91477  
2002-11-20 07:42:43 51°17.789 2°52.275 11.199092 3.835525 33.920577  
2002-11-20 07:42:48 51°17.807 2°52.275 11.199092 3.835525 33.920577  
2002-11-20 07:42:54 51°17.829 2°52.275 11.199737 3.83563 33.921616  
2002-11-20 07:42:58 51°17.843 2°52.276 11.200243 3.835736 33.92119  
2002-11-20 07:43:03 51°17.861 2°52.277 11.200382 3.835946 33.923267  
2002-11-20 07:43:08 51°17.879 2°52.278 11.200428 3.836474 33.928462  
2002-11-20 07:43:14 51°17.9 2°52.279 11.200934 3.83679 33.930846  
2002-11-20 07:43:18 51°17.914 2°52.28 11.200934 3.83679 33.930846  
2002-11-20 07:43:24 51°17.936 2°52.281 11.200013 3.837528 33.937386  
2002-11-20 07:43:28 51°17.95 2°52.281 11.200796 3.838055 33.941848  
2002-11-20 07:43:32 51°17.965 2°52.281 11.201901 3.83816 33.942154  
2002-11-20 07:43:39 51°17.989 2°52.282 11.201072 3.838582 33.947043  
2002-11-20 07:43:43 51°18.004 2°52.282 11.200382 3.838582 33.947776  
2002-11-20 07:43:48 51°18.022 2°52.282 11.200382 3.838582 33.947776  
2002-11-20 07:43:53 51°18.04 2°52.282 11.200612 3.83932 33.953582  
2002-11-20 07:43:58 51°18.057 2°52.283 11.199 3.838582 33.947776  
2002-11-20 07:44:03 51°18.075 2°52.287 11.204618 3.83932 33.953582  
2002-11-20 07:44:08 51°18.093 2°52.292 11.20623 3.839214 33.952543  
2002-11-20 07:44:12 51°18.106 2°52.298 11.207289 3.83953 33.95566  
2002-11-20 07:44:18 51°18.126 2°52.309 11.207289 3.83953 33.95566  
2002-11-20 07:44:23 51°18.142 2°52.319 11.202914 3.83953 33.95566  
2002-11-20 07:44:28 51°18.159 2°52.33 11.198447 3.839847 33.959511  
2002-11-20 07:44:32 51°18.172 2°52.339 11.19679 3.840163 33.959694  
2002-11-20 07:44:38 51°18.191 2°52.353 11.196007 3.840374 33.958106  
2002-11-20 07:44:43 51°18.207 2°52.366 11.19679 3.840373 33.956639  
2002-11-20 07:44:48 51°18.222 2°52.381 11.19679 3.840373 33.956639  
2002-11-20 07:44:54 51°18.238 2°52.401 11.197803 3.840479 33.959878  
2002-11-20 07:44:58 51°18.249 2°52.416 11.199507 3.840901 33.966967  
2002-11-20 07:45:03 51°18.262 2°52.434 11.195915 3.840795 33.967395  
2002-11-20 07:45:08 51°18.275 2°52.453 11.192691 3.840479 33.965745  
2002-11-20 07:45:12 51°18.285 2°52.469 11.190019 3.84069 33.968557  
2002-11-20 07:45:18 51°18.299 2°52.493 11.190019 3.84069 33.968557  
2002-11-20 07:45:23 51°18.312 2°52.513 11.190065 3.840795 33.968129  
2002-11-20 07:45:28 51°18.324 2°52.533 11.188776 3.841111 33.970513  
2002-11-20 07:45:34 51°18.338 2°52.558 11.189006 3.840795 33.968129  
2002-11-20 07:45:38 51°18.347 2°52.575 11.187256 3.84069 33.970025  
2002-11-20 07:45:44 51°18.361 2°52.599 11.1844 3.840268 33.968069  
2002-11-20 07:45:48 51°18.37 2°52.617 11.1844 3.840268 33.968069  
2002-11-20 07:45:54 51°18.384 2°52.642 11.183617 3.840584 33.973388  
2002-11-20 07:45:58 51°18.392 2°52.66 11.182972 3.840057 33.968926  
2002-11-20 07:46:04 51°18.404 2°52.688 11.183248 3.839847 33.967581  
2002-11-20 07:46:08 51°18.412 2°52.706 11.181452 3.839847 33.969783  
2002-11-20 07:46:14 51°18.423 2°52.735 11.182373 3.839214 33.965014  
2002-11-20 07:46:18 51°18.431 2°52.754 11.182373 3.839214 33.965014  
2002-11-20 07:46:24 51°18.442 2°52.782 11.177122 3.839214 33.965014  
2002-11-20 07:46:28 51°18.449 2°52.801 11.175694 3.838687 33.959817  
2002-11-20 07:46:34 51°18.46 2°52.83 11.175509 3.838793 33.962324  
2002-11-20 07:46:39 51°18.469 2°52.854 11.176016 3.838793 33.963058  
2002-11-20 07:46:43 51°18.477 2°52.874 11.17597 3.837949 33.955477  
2002-11-20 07:46:48 51°18.485 2°52.898 11.17597 3.837949 33.955477  
2002-11-20 07:46:54 51°18.495 2°52.928 11.17468 3.837739 33.956333  
2002-11-20 07:46:58 51°18.502 2°52.947 11.173206 3.837844 33.95884  
2002-11-20 07:47:03 51°18.511 2°52.972 11.17316 3.837001 33.951257  
2002-11-20 07:47:08 51°18.52 2°52.996 11.172699 3.837528 33.956455  
2002-11-20 07:47:14 51°18.531 2°53.025 11.170994 3.837001 33.952725  
2002-11-20 07:47:18 51°18.538 2°53.045 11.170994 3.837001 33.952725  
2002-11-20 07:47:24 51°18.548 2°53.075 11.171133 3.836368 33.946488  
2002-11-20 07:47:28 51°18.555 2°53.094 11.170488 3.836685 33.951074  
2002-11-20 07:47:32 51°18.562 2°53.114 11.168691 3.835841 33.943491  
2002-11-20 07:47:38 51°18.572 2°53.143 31.567614 3.835947 33.945264  
2002-11-20 07:47:43 51°18.581 2°53.168 11.316512 3.835841 33.944225  
2002-11-20 07:47:48 51°18.589 2°53.192 11.316512 3.835841 33.944225  
2002-11-20 07:47:52 51°18.597 2°53.212 11.352405 3.835104 33.939882  
2002-11-20 07:47:58 51°18.607 2°53.241 11.652249 3.83542 33.941533  
2002-11-20 07:48:03 51°18.616 2°53.265 11.389243 3.834366 33.931871  
2002-11-20 07:48:08 51°18.625 2°53.289 11.349097 3.833839 33.928873  
2002-11-20 07:48:12 51°18.633 2°53.307 11.461572 3.83405 33.930219  
2002-11-20 07:48:19 51°18.645 2°53.341 11.461572 3.83405 33.930219  
2002-11-20 07:48:23 51°18.653 2°53.36 11.346156 3.833101 33.923062  
2002-11-20 07:48:28 51°18.661 2°53.384 11.445699 3.832574 33.91933  
2002-11-20 07:48:34 51°18.672 2°53.413 11.472442 3.832468 33.920491  
2002-11-20 07:48:38 51°18.679 2°53.432 11.310352 3.832047 33.917065  
2002-11-20 07:48:44 51°18.689 2°53.461 11.524107 3.831731 33.914679  
2002-11-20 07:48:48 51°18.696 2°53.48 11.524107 3.831731 33.914679  
2002-11-20 07:48:54 51°18.706 2°53.509 11.361226 3.831098 33.91064  
2002-11-20 07:48:58 51°18.713 2°53.529 11.350338 3.829623 33.899749  
2002-11-20 07:49:04 51°18.722 2°53.559 11.305525 3.827936 33.891174  
2002-11-20 07:49:08 51°18.729 2°53.579 11.320512 3.825934 33.880943  
2002-11-20 07:49:14 51°18.737 2°53.609 11.320512 3.825934 33.880943  
2002-11-20 07:49:18 51°18.743 2°53.629 11.203835 3.823615 33.86612  
2002-11-20 07:49:24 51°18.752 2°53.659 11.263672 3.821191 33.850985  
2002-11-20 07:49:28 51°18.758 2°53.679 11.255252 3.818556 33.833763  
2002-11-20 07:49:34 51°18.768 2°53.708 11.391906 3.816553 33.828643  
2002-11-20 07:49:38 51°18.774 2°53.728 11.156803 3.812232 33.796216  
2002-11-20 07:49:43 51°18.782 2°53.753 11.259439 3.809597 33.779705  
2002-11-20 07:49:48 51°18.79 2°53.778 11.259439 3.809597 33.779705  
2002-11-20 07:49:54 51°18.799 2°53.807 11.136201 3.807173 33.767469  
2002-11-20 07:49:58 51°18.805 2°53.828 11.155006 3.804643 33.752721  
2002-11-20 07:50:04 51°18.814 2°53.857 11.188592 3.801903 33.735151  
2002-11-20 07:50:08 51°18.82 2°53.877 11.051514 3.799373 33.718926  
2002-11-20 07:50:14 51°18.829 2°53.907 11.192368 3.797582 33.714385  
2002-11-20 07:50:18 51°18.835 2°53.926 11.192368 3.797582 33.714385  
2002-11-20 07:50:24 51°18.845 2°53.956 11.21484 3.794736 33.694289  
2002-11-20 07:50:28 51°18.851 2°53.976 11.045837 3.79052 33.665754  
2002-11-20 07:50:34 51°18.86 2°54.006 11.032957 3.788201 33.650126  
2002-11-20 07:50:38 51°18.866 2°54.026 11.08889 3.784723 33.628871  
2002-11-20 07:50:43 51°18.874 2°54.05 10.998968 3.780718 33.600193  
2002-11-20 07:50:48 51°18.882 2°54.075 10.998968 3.780718 33.600193  
2002-11-20 07:50:53 51°18.889 2°54.1 10.88371 3.778189 33.588308  
2002-11-20 07:50:58 51°18.897 2°54.125 10.970369 3.773341 33.555642  
2002-11-20 07:51:03 51°18.904 2°54.149 11.035681 3.768493 33.522226  
2002-11-20 07:51:08 51°18.912 2°54.174 10.98936 3.764382 33.493913  
2002-11-20 07:51:12 51°18.918 2°54.194 11.208855 3.760167 33.467461  
2002-11-20 07:51:18 51°18.928 2°54.223 11.208855 3.760167 33.467461  
2002-11-20 07:51:23 51°18.936 2°54.248 10.852237 3.756478 33.439651  
2002-11-20 07:51:28 51°18.943 2°54.272 10.924094 3.751841 33.407532  
2002-11-20 07:51:34 51°18.952 2°54.302 11.139935 3.748258 33.385848  
2002-11-20 07:51:38 51°18.959 2°54.322 11.015272 3.745096 33.363233  
2002-11-20 07:51:43 51°18.966 2°54.347 10.813105 3.741618 33.33893  
2002-11-20 07:51:48 51°18.974 2°54.371 10.813105 3.741618 33.33893  
2002-11-20 07:51:54 51°18.983 2°54.4 11.02714 3.7393 33.326122  
2002-11-20 07:51:58 51°18.989 2°54.42 10.866726 3.735927 33.300665  
2002-11-20 07:52:04 51°18.998 2°54.45 10.887504 3.732344 33.274563  
2002-11-20 07:52:08 51°19.004 2°54.47 11.109783 3.729077 33.250864  
2002-11-20 07:52:14 51°19.013 2°54.499 11.053684 3.725494 33.22838  
2002-11-20 07:52:18 51°19.02 2°54.519 11.053684 3.725494 33.22838  
2002-11-20 07:52:24 51°19.029 2°54.548 10.856912 3.723281 33.214402  
2002-11-20 07:52:28 51°19.035 2°54.567 10.812874 3.718749 33.180299  
2002-11-20 07:52:34 51°19.044 2°54.597 10.806249 3.714007 33.143363  
2002-11-20 07:52:38 51°19.05 2°54.616 10.761713 3.710951 33.125342  
2002-11-20 07:52:43 51°19.057 2°54.641 10.85807 3.707473 33.103123  
2002-11-20 07:52:48 51°19.065 2°54.666 10.85807 3.707473 33.103123  
2002-11-20 07:52:53 51°19.073 2°54.69 11.00465 3.703258 33.07066  
2002-11-20 07:52:58 51°19.08 2°54.714 10.684339 3.700202 33.047534  
2002-11-20 07:53:04 51°19.089 2°54.744 10.751745 3.697356 33.024325  
2002-11-20 07:53:08 51°19.096 2°54.763 10.698262 3.69409 32.999817  
2002-11-20 07:53:14 51°19.105 2°54.792 10.663357 3.690401 32.970389  
2002-11-20 07:53:18 51°19.111 2°54.812 10.663357 3.690401 32.970389  
2002-11-20 07:53:24 51°19.12 2°54.842 10.717239 3.68724 32.949085  
2002-11-20 07:53:28 51°19.126 2°54.861 10.785676 3.683235 32.919388  
2002-11-20 07:53:34 51°19.136 2°54.891 10.812735 3.67902 32.889752  
2002-11-20 07:53:38 51°19.142 2°54.91 10.660292 3.674911 32.860428  
2002-11-20 07:53:43 51°19.149 2°54.935 10.75754 3.672276 32.842161  
2002-11-20 07:53:48 51°19.157 2°54.959 10.75754 3.672276 32.842161  
2002-11-20 07:53:53 51°19.165 2°54.984 10.716311 3.668272 32.808814  
2002-11-20 07:53:58 51°19.172 2°55.008 10.86654 3.664794 32.783587  
2002-11-20 07:54:04 51°19.181 2°55.038 10.625739 3.661212 32.758744  
2002-11-20 07:54:08 51°19.188 2°55.057 10.728557 3.658472 32.735077  
2002-11-20 07:54:12 51°19.194 2°55.077 10.677145 3.654046 32.701106  
2002-11-20 07:54:18 51°19.203 2°55.106 10.677145 3.654046 32.701106  
2002-11-20 07:54:23 51°19.211 2°55.131 10.712646 3.650569 32.674405  
2002-11-20 07:54:28 51°19.218 2°55.155 10.739456 3.647934 32.653933  
2002-11-20 07:54:34 51°19.228 2°55.185 10.766348 3.644668 32.628599  
2002-11-20 07:54:38 51°19.234 2°55.204 10.647708 3.641717 32.603534  
2002-11-20 07:54:44 51°19.244 2°55.233 10.647337 3.636659 32.564658  
2002-11-20 07:54:48 51°19.25 2°55.253 10.647337 3.636659 32.564658  
2002-11-20 07:54:54 51°19.259 2°55.282 10.716543 3.633498 32.541787  
2002-11-20 07:54:58 51°19.265 2°55.302 10.712321 3.630864 32.522722  
2002-11-20 07:55:04 51°19.275 2°55.331 10.591166 3.626965 32.49249  
2002-11-20 07:55:08 51°19.281 2°55.35 10.66006 3.624226 32.470931  
2002-11-20 07:55:14 51°19.29 2°55.38 10.654303 3.621275 32.446552  
2002-11-20 07:55:18 51°19.296 2°55.4 10.654303 3.621275 32.446552  
2002-11-20 07:55:23 51°19.304 2°55.424 10.456515 3.618536 32.423553  
2002-11-20 07:55:28 51°19.312 2°55.448 10.607293 3.615374 32.398497  
2002-11-20 07:55:34 51°19.322 2°55.478 10.719929 3.613372 32.384985  
2002-11-20 07:55:39 51°19.329 2°55.502 10.527551 3.610211 32.359205  
2002-11-20 07:55:43 51°19.336 2°55.522 10.513545 3.607999 32.338586  
2002-11-20 07:55:48 51°19.343 2°55.547 10.513545 3.607999 32.338586  
2002-11-20 07:55:54 51°19.353 2°55.576 10.519827 3.605048 32.314899  
2002-11-20 07:55:58 51°19.359 2°55.596 10.589121 3.602309 32.294021  
2002-11-20 07:56:04 51°19.368 2°55.625 10.548112 3.600307 32.277637  
2002-11-20 07:56:08 51°19.374 2°55.645 10.661221 3.59841 32.260875  
2002-11-20 07:56:14 51°19.384 2°55.674 10.584659 3.595249 32.234362  
2002-11-20 07:56:18 51°19.39 2°55.694 10.584659 3.595249 32.234362  
2002-11-20 07:56:24 51°19.399 2°55.724 10.497814 3.59388 32.224273  
2002-11-20 07:56:28 51°19.405 2°55.743 10.577267 3.591667 32.205069  
2002-11-20 07:56:34 51°19.415 2°55.773 10.48883 3.589665 32.188675  
2002-11-20 07:56:38 51°19.421 2°55.792 10.411926 3.58819 32.176108  
2002-11-20 07:56:43 51°19.429 2°55.817 10.411553 3.58682 32.164591  
2002-11-20 07:56:48 51°19.436 2°55.841 10.411553 3.58682 32.164591  
2002-11-20 07:56:53 51°19.444 2°55.866 10.370945 3.584397 32.144703  
2002-11-20 07:56:58 51°19.452 2°55.89 10.597999 3.582922 32.132133  
2002-11-20 07:57:03 51°19.46 2°55.915 10.593119 3.579866 32.105231  
2002-11-20 07:57:08 51°19.467 2°55.94 10.588099 3.578496 32.09442  
2002-11-20 07:57:12 51°19.473 2°55.959 10.629687 3.57681 32.078328  
2002-11-20 07:57:18 51°19.482 2°55.988 10.629687 3.57681 32.078328  
2002-11-20 07:57:24 51°19.491 2°56.017 10.591538 3.575546 32.069273  
2002-11-20 07:57:28 51°19.497 2°56.037 10.661918 3.574282 32.057381  
2002-11-20 07:57:34 51°19.507 2°56.066 10.621093 3.57228 32.041683  
2002-11-20 07:57:38 51°19.513 2°56.086 10.508845 3.570067 32.023174  
2002-11-20 07:57:43 51°19.521 2°56.11 10.398176 3.569224 32.017606  
2002-11-20 07:57:48 51°19.529 2°56.135 10.398176 3.569224 32.017606  
2002-11-20 07:57:53 51°19.536 2°56.159 10.582892 3.568171 32.007104  
2002-11-20 07:57:58 51°19.544 2°56.183 10.503167 3.566485 31.992426  
2002-11-20 07:58:03 51°19.552 2°56.208 10.462476 3.564588 31.975647  
2002-11-20 07:58:08 51°19.56 2°56.232 10.58094 3.56343 31.966219  
2002-11-20 07:58:12 51°19.566 2°56.251 10.615703 3.562587 31.95711  
2002-11-20 07:58:19 51°19.577 2°56.285 10.615703 3.562587 31.95711  
2002-11-20 07:58:24 51°19.585 2°56.31 10.613566 3.561638 31.948367  
2002-11-20 07:58:28 51°19.591 2°56.329 10.424882 3.560058 31.933323  
2002-11-20 07:58:34 51°19.6 2°56.358 10.576477 3.559004 31.92565  
2002-11-20 07:58:38 51°19.606 2°56.378 10.459821 3.557529 31.912363  
2002-11-20 07:58:43 51°19.614 2°56.402 10.655556 3.557002 31.908525  
2002-11-20 07:58:48 51°19.622 2°56.426 10.655556 3.557002 31.908525  
2002-11-20 07:58:53 51°19.63 2°56.45 10.42395 3.555844 31.896975  
2002-11-20 07:58:58 51°19.638 2°56.474 10.462942 3.555317 31.892431  
2002-11-20 07:59:04 51°19.647 2°56.504 10.420548 3.554158 31.880882  
2002-11-20 07:59:08 51°19.653 2°56.523 10.460427 3.55321 31.872138  
2002-11-20 07:59:12 51°19.66 2°56.542 10.535273 3.552683 31.866888  
2002-11-20 07:59:18 51°19.669 2°56.572 10.535273 3.552683 31.866888  
2002-11-20 07:59:24 51°19.678 2°56.601 10.456095 3.551734 31.856735  
2002-11-20 07:59:28 51°19.684 2°56.62 10.495115 3.550575 31.847302  
2002-11-20 07:59:32 51°19.691 2°56.64 10.683782 3.549733 31.840313  
2002-11-20 07:59:38 51°19.7 2°56.669 10.653838 3.548468 31.829125  
2002-11-20 07:59:43 51°19.708 2°56.693 10.493858 3.547836 31.822826  
2002-11-20 07:59:48 51°19.716 2°56.717 10.493858 3.547836 31.822826  
2002-11-20 07:59:53 51°19.723 2°56.741 10.569271 3.546572 31.810933  
2002-11-20 07:59:58 51°19.731 2°56.766 10.492182 3.546045 31.806389  
2002-11-20 08:00:03 51°19.738 2°56.79 10.494789 3.544991 31.797299  
2002-11-20 08:00:08 51°19.746 2°56.814 10.337218 3.54457 31.790285  
2002-11-20 08:00:12 51°19.752 2°56.834 10.569782 3.543727 31.783295  
2002-11-20 08:00:18 51°19.762 2°56.863 10.569782 3.543727 31.783295  
2002-11-20 08:00:24 51°19.771 2°56.892 10.532808 3.542674 31.774909  
2002-11-20 08:00:28 51°19.777 2°56.912 10.375656 3.541831 31.766512  
2002-11-20 08:00:34 51°19.786 2°56.941 10.457493 3.541515 31.763363  
2002-11-20 08:00:38 51°19.792 2°56.961 10.690327 3.540461 31.754274  
2002-11-20 08:00:43 51°19.8 2°56.985 10.719558 3.54004 31.750778  
2002-11-20 08:00:48 51°19.808 2°57.009 10.719558 3.54004 31.750778  
2002-11-20 08:00:53 51°19.815 2°57.033 10.384842 3.539618 31.74658  
2002-11-20 08:00:58 51°19.823 2°57.058 10.493858 3.539197 31.741679  
2002-11-20 08:01:04 51°19.833 2°57.087 10.494184 3.538881 31.737827  
2002-11-20 08:01:08 51°19.839 2°57.106 10.572107 3.538881 31.736422  
2002-11-20 08:01:14 51°19.848 2°57.135 10.569457 3.537932 31.729085  
2002-11-20 08:01:18 51°19.855 2°57.155 10.569457 3.537932 31.729085  
2002-11-20 08:01:23 51°19.863 2°57.179 10.45698 3.538038 31.728729  
2002-11-20 08:01:28 51°19.871 2°57.203 10.461172 3.537406 31.723135  
2002-11-20 08:01:32 51°19.877 2°57.223 10.460101 3.536984 31.71964  
2002-11-20 08:01:38 51°19.886 2°57.252 10.501678 3.536668 31.716491  
2002-11-20 08:01:43 51°19.894 2°57.277 10.384329 3.536141 31.710542  
2002-11-20 08:01:48 51°19.902 2°57.301 10.384329 3.536141 31.710542  
2002-11-20 08:01:52 51°19.908 2°57.321 10.537925 3.536141 31.70984  
2002-11-20 08:01:58 51°19.918 2°57.35 10.5722 3.536036 31.708088  
2002-11-20 08:02:03 51°19.926 2°57.375 10.461638 3.535404 31.701091  
2002-11-20 08:02:08 51°19.934 2°57.399 10.573967 3.535509 31.701438  
2002-11-20 08:02:13 51°19.941 2°57.424 10.617794 3.535193 31.69829  
2002-11-20 08:02:18 51°19.949 2°57.449 10.617794 3.535193 31.69829  
2002-11-20 08:02:24 51°19.958 2°57.478 10.616029 3.534982 31.696894  
2002-11-20 08:02:28 51°19.964 2°57.498 10.500467 3.534772 31.694795  
2002-11-20 08:02:32 51°19.97 2°57.518 10.465317 3.53435 31.689195  
2002-11-20 08:02:39 51°19.982 2°57.551 10.696916 3.534456 31.690244  
2002-11-20 08:02:43 51°19.988 2°57.571 10.469275 3.53435 31.686389  
2002-11-20 08:02:48 51°19.995 2°57.596 10.469275 3.53435 31.686389  
2002-11-20 08:02:53 51°20.004 2°57.62 10.433036 3.534772 31.689884  
2002-11-20 08:02:58 51°20.012 2°57.644 10.438208 3.533929 31.682894  
2002-11-20 08:03:03 51°20.019 2°57.669 10.6693 3.534139 31.683589  
2002-11-20 08:03:08 51°20.028 2°57.693 10.476027 3.533929 31.68079  
2002-11-20 08:03:12 51°20.034 2°57.713 10.705918 3.533718 31.67729  
2002-11-20 08:03:19 51°20.044 2°57.747 10.705918 3.533718 31.67729  
2002-11-20 08:03:23 51°20.051 2°57.767 10.405308 3.533402 31.674143  
2002-11-20 08:03:28 51°20.058 2°57.791 10.404609 3.533191 31.669942  
2002-11-20 08:03:32 51°20.065 2°57.811 10.595582 3.533823 31.67273  
2002-11-20 08:03:38 51°20.074 2°57.84 10.518571 3.533823 31.671328  
2002-11-20 08:03:43 51°20.082 2°57.865 10.524061 3.533613 31.66853  
2002-11-20 08:03:48 51°20.089 2°57.89 10.524061 3.533613 31.66853  
2002-11-20 08:03:52 51°20.096 2°57.909 10.636794 3.533191 31.664335  
2002-11-20 08:03:59 51°20.107 2°57.943 10.675056 3.533191 31.662233  
2002-11-20 08:04:03 51°20.113 2°57.962 10.48748 3.533086 31.660484  
2002-11-20 08:04:08 51°20.121 2°57.987 10.640603 3.533191 31.660132  
2002-11-20 08:04:14 51°20.131 2°58.016 10.412625 3.532664 31.654889  
2002-11-20 08:04:18 51°20.137 2°58.035 10.412625 3.532664 31.654889  
2002-11-20 08:04:24 51°20.146 2°58.065 10.488597 3.532559 31.65244  
2002-11-20 08:04:28 51°20.153 2°58.084 10.565737 3.532454 31.649991  
2002-11-20 08:04:34 51°20.162 2°58.113 10.529226 3.532243 31.647194  
2002-11-20 08:04:38 51°20.168 2°58.133 10.527504 3.532453 31.64719  
2002-11-20 08:04:43 51°20.176 2°58.157 10.528388 3.532032 31.643697  
2002-11-20 08:04:48 51°20.184 2°58.182 10.528388 3.532032 31.643697  
2002-11-20 08:04:54 51°20.193 2°58.211 10.641021 3.531716 31.640552  
2002-11-20 08:04:59 51°20.201 2°58.235 10.529133 3.531611 31.639504  
2002-11-20 08:05:03 51°20.207 2°58.255 10.566434 3.531295 31.63496  
2002-11-20 08:05:08 51°20.215 2°58.279 10.488691 3.530978 31.631815  
2002-11-20 08:05:12 51°20.222 2°58.298 10.566388 3.530662 31.627971  
2002-11-20 08:05:18 51°20.231 2°58.328 10.566388 3.530662 31.627971  
2002-11-20 08:05:23 51°20.238 2°58.352 10.566248 3.530452 31.626574  
2002-11-20 08:05:28 51°20.246 2°58.377 10.566899 3.530557 31.626923  
2002-11-20 08:05:32 51°20.252 2°58.396 10.606503 3.530452 31.625175  
2002-11-20 08:05:38 51°20.262 2°58.425 10.5649 3.529609 31.61679  
2002-11-20 08:05:44 51°20.271 2°58.454 10.566527 3.529293 31.614345  
2002-11-20 08:05:48 51°20.277 2°58.474 10.566527 3.529293 31.614345  
2002-11-20 08:05:54 51°20.287 2°58.503 10.601484 3.529398 31.614694  
2002-11-20 08:05:58 51°20.293 2°58.522 10.562807 3.528661 31.608755  
2002-11-20 08:06:04 51°20.303 2°58.551 10.523084 3.52845 31.60596  
2002-11-20 08:06:08 51°20.309 2°58.571 10.446081 3.527818 31.600371  
2002-11-20 08:06:13 51°20.317 2°58.595 10.481102 3.527818 31.600371  
2002-11-20 08:06:18 51°20.325 2°58.619 10.481102 3.527818 31.600371  
2002-11-20 08:06:24 51°20.334 2°58.648 10.518385 3.527291 31.596528  
2002-11-20 08:06:28 51°20.34 2°58.667 10.670599 3.52687 31.592336  
2002-11-20 08:06:32 51°20.347 2°58.686 10.595164 3.526448 31.588843  
2002-11-20 08:06:39 51°20.358 2°58.72 10.442307 3.526659 31.590939  
2002-11-20 08:06:44 51°20.365 2°58.744 10.628758 3.525921 31.585699  
2002-11-20 08:06:48 51°20.372 2°58.764 10.628758 3.525921 31.585699  
2002-11-20 08:06:52 51°20.378 2°58.783 10.551972 3.525289 31.580807  
2002-11-20 08:06:58 51°20.388 2°58.812 10.478588 3.524552 31.573471  
2002-11-20 08:07:03 51°20.396 2°58.836 10.477144 3.524868 31.576615  
2002-11-20 08:07:08 51°20.403 2°58.86 10.593072 3.524446 31.57382  
2002-11-20 08:07:14 51°20.413 2°58.889 10.51643 3.524341 31.572073  
2002-11-20 08:07:18 51°20.419 2°58.908 10.51643 3.524341 31.572073  
2002-11-20 08:07:24 51°20.429 2°58.936 10.47896 3.524025 31.571723  
2002-11-20 08:07:28 51°20.435 2°58.956 10.630198 3.524025 31.571723  
2002-11-20 08:07:32 51°20.441 2°58.975 10.553739 3.523709 31.569277  
2002-11-20 08:07:38 51°20.451 2°59.003 10.133507 3.523814 31.570325  
2002-11-20 08:07:43 51°20.459 2°59.027 10.440164 3.523709 31.568578  
2002-11-20 08:07:48 51°20.467 2°59.051 10.440164 3.523709 31.568578  
2002-11-20 08:07:52 51°20.473 2°59.07 10.477284 3.523498 31.566482  
2002-11-20 08:07:58 51°20.482 2°59.099 10.478588 3.523709 31.566483  
2002-11-20 08:08:04 51°20.491 2°59.129 10.552018 3.523498 31.565783  
2002-11-20 08:08:08 51°20.497 2°59.148 10.667582 3.523393 31.565434  
2002-11-20 08:08:13 51°20.504 2°59.172 10.552344 3.523498 31.56718  
2002-11-20 08:08:18 51°20.512 2°59.196 10.552344 3.523498 31.56718  
2002-11-20 08:08:24 51°20.52 2°59.226 10.626621 3.523604 31.56753  
2002-11-20 08:08:28 51°20.526 2°59.245 10.430054 3.523709 31.568578  
2002-11-20 08:08:34 51°20.535 2°59.275 10.47165 3.523182 31.563337  
2002-11-20 08:08:38 51°20.541 2°59.294 10.503446 3.523077 31.562289  
2002-11-20 08:08:43 51°20.548 2°59.318 10.542344 3.523077 31.561591  
2002-11-20 08:08:48 51°20.556 2°59.343 10.542344 3.523077 31.561591  
2002-11-20 08:08:52 51°20.561 2°59.362 10.427305 3.52255 31.558445  
2002-11-20 08:08:58 51°20.57 2°59.391 10.429215 3.522023 31.555997  
2002-11-20 08:09:03 51°20.577 2°59.416 10.465969 3.521707 31.554948  
2002-11-20 08:09:08 51°20.584 2°59.441 10.543228 3.521286 31.552151  
2002-11-20 08:09:12 51°20.59 2°59.46 10.463175 3.520443 31.547256  
2002-11-20 08:09:19 51°20.6 2°59.495 10.463175 3.520443 31.547256  
2002-11-20 08:09:24 51°20.607 2°59.519 10.461451 3.520443 31.547256  
2002-11-20 08:09:28 51°20.613 2°59.538 10.536995 3.519706 31.539219  
2002-11-20 08:09:34 51°20.622 2°59.568 10.577221 3.518968 31.532579  
2002-11-20 08:09:38 51°20.628 2°59.587 10.687913 3.518757 31.53118  
2002-11-20 08:09:44 51°20.636 2°59.617 10.500747 3.518441 31.528733  
2002-11-20 08:09:48 51°20.642 2°59.637 10.500747 3.518441 31.528733  
2002-11-20 08:09:52 51°20.648 2°59.656 10.499583 3.518125 31.526286  
2002-11-20 08:09:58 51°20.657 2°59.685 10.500886 3.517599 31.521742  
2002-11-20 08:10:03 51°20.664 2°59.71 10.538065 3.517177 31.518247  
2002-11-20 08:10:08 51°20.672 2°59.734 10.537692 3.516966 31.517545  
2002-11-20 08:10:12 51°20.678 2°59.754 10.347203 3.515913 31.507062  
2002-11-20 08:10:19 51°20.688 2°59.788 10.347203 3.515913 31.507062  
2002-11-20 08:10:24 51°20.695 2°59.813 10.421247 3.516229 31.508812  
2002-11-20 08:10:28 51°20.701 2°59.833 10.464525 3.515913 31.504272  
2002-11-20 08:10:34 51°20.709 2°59.862 10.498326 3.515386 31.501123  
2002-11-20 08:10:39 51°20.717 2°59.887 10.422599 3.515175 31.499724  
2002-11-20 08:10:43 51°20.722 2°59.907 10.421294 3.514859 31.497276  
2002-11-20 08:10:48 51°20.73 2°59.932 10.421294 3.514859 31.497276  
2002-11-20 08:10:52 51°20.736 2°59.952 10.423997 3.514333 31.492035  
2002-11-20 08:10:58 51°20.745 2°59.981 10.539786 3.514227 31.490986  
2002-11-20 08:11:03 51°20.752 3°0.006 10.617562 3.514017 31.489587  
2002-11-20 08:11:08 51°20.759 3°0.031 10.577407 3.513806 31.486096  
2002-11-20 08:11:12 51°20.765 3°0.051 10.461871 3.513384 31.481903  
2002-11-20 08:11:19 51°20.774 3°0.086 10.461871 3.513384 31.481903  
2002-11-20 08:11:24 51°20.78 3°0.112 10.427398 3.513279 31.480855  
2002-11-20 08:11:28 51°20.785 3°0.132 10.579638 3.513279 31.479461  
2002-11-20 08:11:33 51°20.791 3°0.158 10.465829 3.512963 31.47562  
2002-11-20 08:11:38 51°20.796 3°0.184 10.57736 3.512542 31.471427  
2002-11-20 08:11:44 51°20.803 3°0.216 10.57657 3.51212 31.466538  
2002-11-20 08:11:48 51°20.808 3°0.236 10.57657 3.51212 31.466538  
2002-11-20 08:11:54 51°20.814 3°0.268 10.497954 3.511804 31.462698  
2002-11-20 08:11:58 51°20.819 3°0.289 10.458517 3.511804 31.461305  
2002-11-20 08:12:03 51°20.824 3°0.315 10.64599 3.511172 31.455713  
2002-11-20 08:12:08 51°20.83 3°0.34 10.455304 3.510751 31.452218  
2002-11-20 08:12:13 51°20.836 3°0.366 10.532947 3.510013 31.44697  
2002-11-20 08:12:18 51°20.842 3°0.393 10.532947 3.510013 31.44697  
2002-11-20 08:12:23 51°20.847 3°0.419 10.569829 3.509592 31.442778  
2002-11-20 08:12:28 51°20.853 3°0.444 10.490925 3.508749 31.436482  
2002-11-20 08:12:34 51°20.86 3°0.476 10.572711 3.508327 31.432986  
2002-11-20 08:12:38 51°20.865 3°0.497 10.418451 3.507379 31.425642  
2002-11-20 08:12:43 51°20.871 3°0.522 10.45563 3.507063 31.422497  
2002-11-20 08:12:48 51°20.877 3°0.548 10.45563 3.507063 31.422497  
2002-11-20 08:12:53 51°20.883 3°0.574 10.606689 3.506642 31.419001  
2002-11-20 08:12:59 51°20.89 3°0.606 10.337685 3.50622 31.414113  
2002-11-20 08:13:03 51°20.895 3°0.627 10.529039 3.50622 31.415504  
2002-11-20 08:13:08 51°20.901 3°0.653 10.528853 3.505799 31.410617  
2002-11-20 08:13:14 51°20.907 3°0.684 10.533599 3.505483 31.407473  
2002-11-20 08:13:18 51°20.912 3°0.705 10.533599 3.505483 31.407473  
2002-11-20 08:13:23 51°20.918 3°0.731 10.379013 3.505694 31.409569  
2002-11-20 08:13:28 51°20.924 3°0.757 10.455117 3.505062 31.403976  
2002-11-20 08:13:34 51°20.931 3°0.789 10.609384 3.504746 31.402918  
2002-11-20 08:13:39 51°20.936 3°0.815 10.650309 3.504956 31.405014  
2002-11-20 08:13:43 51°20.941 3°0.836 10.609616 3.505694 31.410264  
2002-11-20 08:13:48 51°20.947 3°0.862 10.609616 3.505694 31.410264  
2002-11-20 08:13:52 51°20.952 3°0.883 10.499955 3.505483 31.407473  
2002-11-20 08:13:58 51°20.959 3°0.914 10.460427 3.506326 31.415161  
2002-11-20 08:14:03 51°20.965 3°0.941 10.765421 3.50601 31.412017  
2002-11-20 08:14:08 51°20.97 3°0.967 10.384049 3.506431 31.416209  
2002-11-20 08:14:13 51°20.976 3°0.993 10.502096 3.507169 31.42285  
2002-11-20 08:14:18 51°20.982 3°1.019 10.502096 3.507169 31.42285  
2002-11-20 08:14:23 51°20.988 3°1.045 10.386194 3.507485 31.423907  
2002-11-20 08:14:28 51°20.994 3°1.072 10.424323 3.507906 31.428794  
2002-11-20 08:14:34 51°21.001 3°1.103 10.463827 3.508117 31.43089  
2002-11-20 08:14:38 51°21.005 3°1.124 10.46718 3.506642 31.414828  
2002-11-20 08:14:43 51°21.011 3°1.151 10.541042 3.508643 31.433347  
2002-11-20 08:14:48 51°21.017 3°1.177 10.541042 3.508643 31.433347  
2002-11-20 08:14:52 51°21.022 3°1.198 10.542065 3.508749 31.434395  
2002-11-20 08:14:58 51°21.029 3°1.229 10.58187 3.508433 31.431251  
2002-11-20 08:15:03 51°21.035 3°1.255 10.389644 3.50896 31.435795  
2002-11-20 08:15:08 51°21.04 3°1.282 10.543228 3.508854 31.435443  
2002-11-20 08:15:13 51°21.046 3°1.308 10.504377 3.508433 31.429164  
2002-11-20 08:15:18 51°21.052 3°1.334 10.504377 3.508433 31.429164  
2002-11-20 08:15:23 51°21.057 3°1.361 10.580661 3.508643 31.431955  
2002-11-20 08:15:28 51°21.063 3°1.386 10.58187 3.508643 31.429172  
2002-11-20 08:15:34 51°21.07 3°1.418 10.580475 3.508327 31.42742  
2002-11-20 08:15:38 51°21.075 3°1.439 10.391649 3.508117 31.425324  
2002-11-20 08:15:43 51°21.081 3°1.465 10.733845 3.508327 31.42742  
2002-11-20 08:15:48 51°21.087 3°1.492 10.733845 3.508327 31.42742  
2002-11-20 08:15:53 51°21.093 3°1.518 10.580847 3.507906 31.423229  
2002-11-20 08:15:59 51°21.099 3°1.55 10.58094 3.50759 31.420085  
2002-11-20 08:16:03 51°21.104 3°1.572 10.427398 3.507485 31.419038  
2002-11-20 08:16:08 51°21.11 3°1.598 10.468763 3.506958 31.413103  
2002-11-20 08:16:13 51°21.116 3°1.625 10.502748 3.507063 31.414151  
2002-11-20 08:16:19 51°21.123 3°1.656 10.502748 3.507063 31.414151  
2002-11-20 08:16:24 51°21.129 3°1.681 10.501957 3.507063 31.414151  
2002-11-20 08:16:28 51°21.134 3°1.702 10.467552 3.506852 31.41136  
2002-11-20 08:16:34 51°21.141 3°1.733 10.543693 3.506431 31.40856  
2002-11-20 08:16:38 51°21.146 3°1.754 10.57908 3.506958 31.413103  
2002-11-20 08:16:43 51°21.152 3°1.781 10.427724 3.506431 31.40856  
2002-11-20 08:16:48 51°21.158 3°1.807 10.427724 3.506431 31.40856  
2002-11-20 08:16:52 51°21.162 3°1.828 10.5456 3.506747 31.411008  
2002-11-20 08:16:59 51°21.171 3°1.865 10.548809 3.506747 31.409617  
2002-11-20 08:17:03 51°21.175 3°1.886 10.508752 3.506958 31.411018  
2002-11-20 08:17:08 51°21.181 3°1.913 10.660339 3.507063 31.412761  
2002-11-20 08:17:13 51°21.187 3°1.939 10.509636 3.507168 31.415199  
2002-11-20 08:17:19 51°21.194 3°1.971 10.509636 3.507168 31.415199  
2002-11-20 08:17:24 51°21.199 3°1.998 10.469042 3.507168 31.413808  
2002-11-20 08:17:28 51°21.204 3°2.019 10.545786 3.507274 31.414161  
2002-11-20 08:17:34 51°21.211 3°2.05 10.583822 3.507906 31.419752  
2002-11-20 08:17:38 51°21.216 3°2.072 10.355507 3.508011 31.420104  
2002-11-20 08:17:43 51°21.222 3°2.098 10.505354 3.507906 31.419056  
2002-11-20 08:17:48 51°21.228 3°2.124 10.505354 3.507906 31.419056  
2002-11-20 08:17:53 51°21.233 3°2.151 10.659225 3.508433 31.42499  
2002-11-20 08:17:58 51°21.24 3°2.177 10.548949 3.508643 31.427781  
2002-11-20 08:18:03 51°21.245 3°2.203 10.511637 3.508538 31.426038  
2002-11-20 08:18:08 51°21.25 3°2.228 10.58517 3.508538 31.424647  
2002-11-20 08:18:14 51°21.257 3°2.259 10.546065 3.508854 31.427094  
2002-11-20 08:18:18 51°21.262 3°2.281 10.546065 3.508854 31.427094  
2002-11-20 08:18:23 51°21.268 3°2.307 10.81922 3.508959 31.428142  
2002-11-20 08:18:28 51°21.274 3°2.333 10.437928 3.508959 31.428838  
2002-11-20 08:18:34 51°21.281 3°2.365 10.475235 3.509486 31.432685  
2002-11-20 08:18:39 51°21.286 3°2.392 10.704851 3.509592 31.433733  
2002-11-20 08:18:43 51°21.291 3°2.412 10.70151 3.509802 31.437219  
2002-11-20 08:18:48 51°21.297 3°2.439 10.70151 3.509802 31.437219  
2002-11-20 08:18:54 51°21.304 3°2.47 10.738946 3.510434 31.44281  
2002-11-20 08:18:59 51°21.309 3°2.496 10.43504 3.510856 31.444913  
2002-11-20 08:19:04 51°21.315 3°2.522 10.473652 3.511277 31.4498  
2002-11-20 08:19:08 51°21.32 3°2.542 10.472069 3.511593 31.452943  
2002-11-20 08:19:14 51°21.327 3°2.574 10.398595 3.512541 31.460981  
2002-11-20 08:19:18 51°21.331 3°2.594 10.398595 3.512541 31.460981  
2002-11-20 08:19:23 51°21.337 3°2.62 10.360171 3.512541 31.46307  
2002-11-20 08:19:28 51°21.343 3°2.647 10.399621 3.513068 31.468309  
2002-11-20 08:19:33 51°21.349 3°2.673 10.551321 3.5137 31.473899  
2002-11-20 08:19:39 51°21.355 3°2.705 10.666793 3.514016 31.477043  
2002-11-20 08:19:43 51°21.36 3°2.726 10.474351 3.514438 31.481235  
2002-11-20 08:19:48 51°21.365 3°2.752 10.474351 3.514438 31.481235  
2002-11-20 08:19:52 51°21.37 3°2.774 10.627132 3.514965 31.485777  
2002-11-20 08:19:58 51°21.377 3°2.805 10.553553 3.514965 31.485777  
2002-11-20 08:20:03 51°21.382 3°2.831 10.479519 3.51507 31.486825  
2002-11-20 08:20:08 51°21.388 3°2.858 10.551553 3.515491 31.49032  
2002-11-20 08:20:12 51°21.393 3°2.879 10.669578 3.515175 31.487176  
2002-11-20 08:20:19 51°21.401 3°2.916 10.669578 3.515175 31.487176  
2002-11-20 08:20:23 51°21.406 3°2.937 10.592979 3.515491 31.491714  
2002-11-20 08:20:28 51°21.411 3°2.963 10.518152 3.515491 31.491017  
2002-11-20 08:20:33 51°21.417 3°2.989 10.632707 3.515491 31.489623  
2002-11-20 08:20:38 51°21.423 3°3.016 10.555832 3.516018 31.494166  
2002-11-20 08:20:44 51°21.43 3°3.048 10.443519 3.515597 31.490671  
2002-11-20 08:20:48 51°21.434 3°3.069 10.443519 3.515597 31.490671  
2002-11-20 08:20:52 51°21.438 3°3.09 10.48059 3.515807 31.49207  
2002-11-20 08:20:58 51°21.445 3°3.121 10.519362 3.516123 31.494517  
2002-11-20 08:21:04 51°21.452 3°3.153 10.518291 3.516229 31.494868  
2002-11-20 08:21:08 51°21.457 3°3.174 10.521316 3.516123 31.493123  
2002-11-20 08:21:14 51°21.465 3°3.205 10.558297 3.51665 31.497665  
2002-11-20 08:21:18 51°21.469 3°3.226 10.558297 3.51665 31.497665  
2002-11-20 08:21:23 51°21.475 3°3.252 10.484547 3.517282 31.503952  
2002-11-20 08:21:28 51°21.481 3°3.279 10.564016 3.517598 31.507793  
2002-11-20 08:21:33 51°21.486 3°3.305 10.59851 3.517282 31.503952  
2002-11-20 08:21:39 51°21.493 3°3.337 10.522805 3.517809 31.509191  
2002-11-20 08:21:43 51°21.498 3°3.358 10.524154 3.51823 31.513383  
2002-11-20 08:21:48 51°21.504 3°3.384 10.524154 3.51823 31.513383  
2002-11-20 08:21:52 51°21.508 3°3.405 10.565086 3.518652 31.51618  
2002-11-20 08:21:59 51°21.516 3°3.442 10.679744 3.518863 31.518973  
2002-11-20 08:22:03 51°21.521 3°3.463 10.606596 3.519495 31.523865  
2002-11-20 08:22:08 51°21.527 3°3.489 10.720857 3.520022 31.529105  
2002-11-20 08:22:12 51°21.531 3°3.51 10.531273 3.520338 31.532946  
2002-11-20 08:22:18 51°21.539 3°3.542 10.531273 3.520338 31.532946  
2002-11-20 08:22:23 51°21.545 3°3.568 10.570387 3.520864 31.536093  
2002-11-20 08:22:28 51°21.55 3°3.594 10.532901 3.521496 31.541682  
2002-11-20 08:22:32 51°21.555 3°3.615 10.495208 3.521813 31.54343  
2002-11-20 08:22:39 51°21.564 3°3.652 10.496837 3.52255 31.548672  
2002-11-20 08:22:44 51°21.57 3°3.678 10.649566 3.522971 31.551467  
2002-11-20 08:22:48 51°21.574 3°3.699 10.649566 3.522971 31.551467  
2002-11-20 08:22:54 51°21.581 3°3.73 10.537413 3.523393 31.554961  
2002-11-20 08:22:58 51°21.586 3°3.751 10.539134 3.523498 31.555311  
2002-11-20 08:23:03 51°21.592 3°3.778 10.656392 3.524236 31.561947  
2002-11-20 08:23:08 51°21.598 3°3.804 10.620164 3.524762 31.567186  
2002-11-20 08:23:13 51°21.603 3°3.831 10.774182 3.524973 31.567885  
2002-11-20 08:23:18 51°21.609 3°3.857 10.774182 3.524973 31.567885  
2002-11-20 08:23:23 51°21.615 3°3.884 10.584008 3.525184 31.567886  
2002-11-20 08:23:28 51°21.621 3°3.909 10.508193 3.5255 31.570332  
2002-11-20 08:23:34 51°21.631 3°3.939 10.547461 3.526237 31.576269  
2002-11-20 08:23:38 51°21.638 3°3.959 10.702392 3.526869 31.581159  
2002-11-20 08:23:43 51°21.647 3°3.982 10.588842 3.527185 31.582905  
2002-11-20 08:23:48 51°21.657 3°4.005 10.588842 3.527185 31.582905  
2002-11-20 08:23:54 51°21.668 3°4.032 10.554995 3.527818 31.588493  
2002-11-20 08:23:59 51°21.679 3°4.054 10.517221 3.528766 31.597223  
2002-11-20 08:24:03 51°21.688 3°4.072 10.405261 3.529398 31.603509  
2002-11-20 08:24:08 51°21.698 3°4.094 10.560715 3.530452 31.612589  
2002-11-20 08:24:12 51°21.706 3°4.112 10.563644 3.531716 31.624463  
2002-11-20 08:24:18 51°21.719 3°4.139 10.563644 3.531716 31.624463  
2002-11-20 08:24:24 51°21.732 3°4.165 10.602088 3.532137 31.625857  
2002-11-20 08:24:28 51°21.741 3°4.183 10.530947 3.532875 31.631792  
2002-11-20 08:24:34 51°21.753 3°4.21 10.53197 3.533507 31.63598  
2002-11-20 08:24:38 51°21.762 3°4.228 10.573176 3.534244 31.641216  
2002-11-20 08:24:43 51°21.772 3°4.251 10.459775 3.535298 31.648894  
2002-11-20 08:24:48 51°21.783 3°4.273 10.459775 3.535298 31.648894  
2002-11-20 08:24:53 51°21.794 3°4.296 10.690002 3.535508 31.64959  
2002-11-20 08:24:59 51°21.806 3°4.323 10.576059 3.536667 31.659014  
2002-11-20 08:25:03 51°21.815 3°4.341 10.499583 3.536878 31.65901  
2002-11-20 08:25:08 51°21.825 3°4.363 10.651934 3.537932 31.666686  
2002-11-20 08:25:12 51°21.834 3°4.381 10.501072 3.538774 31.672966  
2002-11-20 08:25:18 51°21.847 3°4.408 10.501072 3.538774 31.672966  
2002-11-20 08:25:23 51°21.857 3°4.431 10.500747 3.539301 31.677503  
2002-11-20 08:25:28 51°21.868 3°4.453 10.463035 3.540144 31.685182  
2002-11-20 08:25:33 51°21.879 3°4.476 10.500235 3.541092 31.693208  
2002-11-20 08:25:38 51°21.889 3°4.499 10.580847 3.541092 31.693909  
2002-11-20 08:25:43 51°21.898 3°4.523 10.700258 3.541619 31.699846  
2002-11-20 08:25:48 51°21.906 3°4.548 10.700258 3.541619 31.699846  
2002-11-20 08:25:54 51°21.915 3°4.578 10.659503 3.542146 31.703683  
2002-11-20 08:25:58 51°21.92 3°4.599 10.58531 3.542462 31.706825  
2002-11-20 08:26:03 51°21.927 3°4.626 10.545135 3.542989 31.710661  
2002-11-20 08:26:08 51°21.932 3°4.653 10.579778 3.543094 31.709607  
2002-11-20 08:26:14 51°21.937 3°4.685 10.540623 3.543621 31.710642  
2002-11-20 08:26:19 51°21.942 3°4.712 10.540623 3.543621 31.710642  
2002-11-20 08:26:23 51°21.945 3°4.734 10.656346 3.543726 31.710989  
2002-11-20 08:26:28 51°21.949 3°4.761 10.581591 3.543832 31.712036  
2002-11-20 08:26:34 51°21.954 3°4.794 10.580661 3.543832 31.712036  
2002-11-20 08:26:38 51°21.957 3°4.816 10.507542 3.543937 31.715184  
2002-11-20 08:26:43 51°21.961 3°4.844 10.586239 3.544253 31.719027  
2002-11-20 08:26:48 51°21.965 3°4.871 10.586239 3.544253 31.719027  
2002-11-20 08:26:54 51°21.969 3°4.905 10.815607 3.544148 31.71868  
2002-11-20 08:26:58 51°21.972 3°4.927 10.588842 3.544569 31.72357  
2002-11-20 08:27:03 51°21.976 3°4.955 10.554251 3.544885 31.726712  
2002-11-20 08:27:08 51°21.98 3°4.982 10.557646 3.542883 31.705412  
2002-11-20 08:27:12 51°21.983 3°5.005 10.598649 3.546676 31.742416  
2002-11-20 08:27:19 51°21.989 3°5.043 10.598649 3.546676 31.742416  
2002-11-20 08:27:24 51°21.993 3°5.071 10.563598 3.548046 31.753929  
2002-11-20 08:27:28 51°21.996 3°5.094 10.604877 3.549205 31.764048  
2002-11-20 08:27:32 51°21.999 3°5.116 10.533924 3.549942 31.772082  
2002-11-20 08:27:38 51°22.004 3°5.148 10.534529 3.551312 31.780787  
2002-11-20 08:27:43 51°22.008 3°5.176 10.649287 3.552471 31.790203  
2002-11-20 08:27:48 51°22.012 3°5.204 10.649287 3.552471 31.790203  
2002-11-20 08:27:54 51°22.017 3°5.237 10.613055 3.554157 31.804153  
2002-11-20 08:27:58 51°22.02 3°5.259 10.613984 3.555421 31.814615  
2002-11-20 08:28:04 51°22.025 3°5.292 10.655092 3.55658 31.823326  
2002-11-20 08:28:08 51°22.028 3°5.315 10.654906 3.557844 31.833083  
2002-11-20 08:28:12 51°22.032 3°5.337 10.542716 3.559214 31.84459  
2002-11-20 08:28:18 51°22.037 3°5.37 10.542716 3.559214 31.84459  
2002-11-20 08:28:23 51°22.041 3°5.397 10.695849 3.559741 31.847718  
2002-11-20 08:28:28 51°22.045 3°5.425 10.811576 3.560478 31.854346  
2002-11-20 08:28:32 51°22.048 3°5.447 10.545833 3.561532 31.862709  
2002-11-20 08:28:39 51°22.054 3°5.486 10.585263 3.562585 31.873182  
2002-11-20 08:28:43 51°22.057 3°5.508 10.738575 3.563534 31.8812  
2002-11-20 08:28:48 51°22.062 3°5.535 10.738575 3.563534 31.8812  
2002-11-20 08:28:52 51°22.065 3°5.558 10.738668 3.564166 31.886077  
2002-11-20 08:28:58 51°22.07 3°5.591 10.665028 3.565009 31.894455  
2002-11-20 08:29:03 51°22.074 3°5.619 10.667118 3.565746 31.898971  
2002-11-20 08:29:08 51°22.079 3°5.647 10.631081 3.565957 31.900362  
2002-11-20 08:29:12 51°22.082 3°5.669 10.670274 3.567011 31.908723  
2002-11-20 08:29:18 51°22.087 3°5.702 10.670274 3.567011 31.908723  
2002-11-20 08:29:24 51°22.092 3°5.735 10.519036 3.567643 31.91571  
2002-11-20 08:29:28 51°22.096 3°5.757 10.597162 3.568064 31.918491  
2002-11-20 08:29:32 51°22.099 3°5.78 10.864365 3.56838 31.920929  
2002-11-20 08:29:38 51°22.104 3°5.813 10.600369 3.568696 31.922662  
2002-11-20 08:29:43 51°22.108 3°5.841 10.754666 3.569645 31.92927  
2002-11-20 08:29:48 51°22.113 3°5.868 10.754666 3.569645 31.92927  
2002-11-20 08:29:53 51°22.117 3°5.896 10.796797 3.570488 31.936238  
2002-11-20 08:29:58 51°22.121 3°5.924 10.799577 3.570593 31.936581  
2002-11-20 08:30:03 51°22.125 3°5.952 10.610685 3.571436 31.944254  
2002-11-20 08:30:08 51°22.13 3°5.979 10.535739 3.572173 31.950175  
2002-11-20 08:30:13 51°22.134 3°6.007 10.536018 3.573438 31.959921  
2002-11-20 08:30:18 51°22.139 3°6.035 10.536018 3.573438 31.959921  
2002-11-20 08:30:23 51°22.143 3°6.062 10.724661 3.574597 31.97003  
2002-11-20 08:30:28 51°22.148 3°6.09 10.572758 3.575966 31.980822  
2002-11-20 08:30:34 51°22.153 3°6.122 10.608966 3.577758 31.997212  
2002-11-20 08:30:38 51°22.156 3°6.144 10.646919 3.578495 32.002425  
2002-11-20 08:30:43 51°22.161 3°6.171 10.645851 3.578917 32.005908  
2002-11-20 08:30:48 51°22.165 3°6.198 10.645851 3.578917 32.005908  
2002-11-20 08:30:54 51°22.17 3°6.231 10.64599 3.579865 32.01392  
2002-11-20 08:30:59 51°22.175 3°6.258 10.75856 3.580076 32.017426  
2002-11-20 08:31:03 51°22.179 3°6.28 10.602832 3.57997 32.018496  
2002-11-20 08:31:08 51°22.183 3°6.307 10.563877 3.580181 32.020591  
2002-11-20 08:31:12 51°22.186 3°6.329 10.598928 3.580708 32.025827  
2002-11-20 08:31:19 51°22.193 3°6.367 10.598928 3.580708 32.025827  
2002-11-20 08:31:24 51°22.197 3°6.395 10.560622 3.580602 32.025486  
2002-11-20 08:31:28 51°22.201 3°6.416 10.633078 3.581024 32.028969  
2002-11-20 08:31:34 51°22.206 3°6.449 10.669764 3.580708 32.027239  
2002-11-20 08:31:38 51°22.21 3°6.471 10.553879 3.580286 32.025168  
2002-11-20 08:31:43 51°22.214 3°6.499 10.55253 3.57997 32.024145  
2002-11-20 08:31:48 51°22.219 3°6.526 10.55253 3.57997 32.024145  
2002-11-20 08:31:54 51°22.223 3°6.559 10.513545 3.579865 32.024509  
2002-11-20 08:31:59 51°22.228 3°6.586 10.738668 3.579865 32.026628  
2002-11-20 08:32:03 51°22.232 3°6.608 10.739966 3.579233 32.021756  
2002-11-20 08:32:08 51°22.236 3°6.635 10.668232 3.579338 32.024216  
2002-11-20 08:32:13 51°22.241 3°6.663 10.480543 3.578601 32.019001  
2002-11-20 08:32:19 51°22.245 3°6.696 10.480543 3.578601 32.019001  
2002-11-20 08:32:24 51°22.25 3°6.723 10.672317 3.578601 32.02112  
2002-11-20 08:32:28 51°22.254 3°6.745 10.634704 3.578601 32.020414  
2002-11-20 08:32:34 51°22.259 3°6.777 10.709445 3.578285 32.018684  
2002-11-20 08:32:39 51°22.264 3°6.804 10.516663 3.579654 32.030891  
2002-11-20 08:32:43 51°22.267 3°6.826 10.818339 3.580392 32.036105  
2002-11-20 08:32:48 51°22.272 3°6.852 10.818339 3.580392 32.036105  
2002-11-20 08:32:52 51°22.275 3°6.874 10.585124 3.581129 32.042025  
2002-11-20 08:32:59 51°22.281 3°6.912 10.619885 3.580919 32.03993  
2002-11-20 08:33:03 51°22.285 3°6.934 10.654674 3.580919 32.039223  
2002-11-20 08:33:08 51°22.289 3°6.961 10.726516 3.580392 32.035398  
2002-11-20 08:33:12 51°22.293 3°6.982 10.686103 3.579233 32.025994  
2002-11-20 08:33:19 51°22.299 3°7.021 10.686103 3.579233 32.025994  
2002-11-20 08:33:23 51°22.302 3°7.042 10.684293 3.578706 32.022874  
2002-11-20 08:33:28 51°22.307 3°7.069 10.568387 3.576493 32.002992  
2002-11-20 08:33:34 51°22.313 3°7.102 10.638327 3.574808 31.989053  
2002-11-20 08:33:38 51°22.316 3°7.124 10.637259 3.573122 31.975112  
2002-11-20 08:33:43 51°22.32 3°7.151 10.560947 3.571541 31.961513  
2002-11-20 08:33:48 51°22.325 3°7.178 10.560947 3.571541 31.961513  
2002-11-20 08:33:53 51°22.329 3°7.206 10.51885 3.569329 31.941628  
2002-11-20 08:33:58 51°22.334 3°7.233 10.636423 3.567643 31.927684  
2002-11-20 08:34:03 51°22.338 3°7.26 10.478169 3.566379 31.91793  
2002-11-20 08:34:08 51°22.343 3°7.287 10.516989 3.563639 31.893508  
2002-11-20 08:34:14 51°22.349 3°7.319 10.5894 3.56227 31.881296  
2002-11-20 08:34:18 51°22.354 3°7.34 10.5894 3.56227 31.881296  
2002-11-20 08:34:23 51°22.359 3°7.367 10.508054 3.560373 31.864549  
2002-11-20 08:34:28 51°22.365 3°7.394 10.468064 3.558371 31.846755  
2002-11-20 08:34:34 51°22.371 3°7.426 10.578662 3.557001 31.833136  
2002-11-20 08:34:39 51°22.377 3°7.453 10.576849 3.555737 31.822674  
2002-11-20 08:34:43 51°22.381 3°7.474 10.461964 3.553735 31.805581  
2002-11-20 08:34:48 51°22.386 3°7.501 10.461964 3.553735 31.805581  
2002-11-20 08:34:54 51°22.393 3°7.533 10.689538 3.552366 31.793367  
2002-11-20 08:34:59 51°22.398 3°7.56 10.45903 3.550469 31.776618  
2002-11-20 08:35:04 51°22.404 3°7.586 10.688238 3.548678 31.760214  
2002-11-20 08:35:08 51°22.408 3°7.608 10.537088 3.547308 31.750103  
2002-11-20 08:35:12 51°22.412 3°7.63 10.573548 3.54615 31.739983  
2002-11-20 08:35:19 51°22.42 3°7.667 10.573548 3.54615 31.739983  
2002-11-20 08:35:23 51°22.425 3°7.689 10.651609 3.544148 31.721482  
2002-11-20 08:35:28 51°22.43 3°7.715 10.578662 3.54341 31.715551  
2002-11-20 08:35:34 51°22.436 3°7.748 10.657182 3.542567 31.707872  
2002-11-20 08:35:39 51°22.441 3°7.775 10.508705 3.542567 31.708573  
2002-11-20 08:35:44 51°22.447 3°7.802 10.508193 3.542462 31.708226  
2002-11-20 08:35:48 51°22.451 3°7.823 10.508193 3.542462 31.708226  
2002-11-20 08:35:54 51°22.458 3°7.856 10.70281 3.5432 31.714858  
2002-11-20 08:35:58 51°22.462 3°7.877 10.664935 3.543516 31.715898  
2002-11-20 08:36:03 51°22.467 3°7.904 10.475282 3.544569 31.724972  
2002-11-20 08:36:08 51°22.473 3°7.931 10.512382 3.545517 31.732296  
2002-11-20 08:36:14 51°22.479 3°7.964 10.591073 3.546255 31.738226  
2002-11-20 08:36:19 51°22.484 3°7.991 10.591073 3.546255 31.738226  
2002-11-20 08:36:23 51°22.489 3°8.013 10.515453 3.546782 31.74136  
2002-11-20 08:36:28 51°22.494 3°8.039 10.665353 3.546887 31.741006  
2002-11-20 08:36:32 51°22.499 3°8.061 10.587169 3.546571 31.735761  
2002-11-20 08:36:38 51°22.505 3°8.094 10.625831 3.546676 31.737509  
2002-11-20 08:36:43 51°22.51 3°8.121 10.624763 3.54636 31.733667  
2002-11-20 08:36:48 51°22.515 3°8.148 10.624763 3.54636 31.733667  
2002-11-20 08:36:53 51°22.521 3°8.175 10.620071 3.544885 31.719006  
2002-11-20 08:36:58 51°22.526 3°8.202 10.655974 3.544358 31.71307  
2002-11-20 08:37:03 51°22.531 3°8.229 10.615796 3.542778 31.698764  
2002-11-20 08:37:08 51°22.536 3°8.256 10.650216 3.54204 31.690734  
2002-11-20 08:37:14 51°22.543 3°8.289 10.613845 3.541092 31.682011  
2002-11-20 08:37:18 51°22.547 3°8.311 10.613845 3.541092 31.682011  
2002-11-20 08:37:23 51°22.552 3°8.338 10.457306 3.540039 31.673639  
2002-11-20 08:37:28 51°22.558 3°8.365 10.455304 3.538774 31.663173  
2002-11-20 08:37:34 51°22.564 3°8.397 10.566295 3.537299 31.649913  
2002-11-20 08:37:39 51°22.569 3°8.425 10.644504 3.535298 31.633514  
2002-11-20 08:37:43 51°22.574 3°8.447 10.449388 3.534876 31.630024  
2002-11-20 08:37:48 51°22.579 3°8.474 10.449388 3.534876 31.630024  
2002-11-20 08:37:52 51°22.584 3°8.496 10.52327 3.533401 31.617462  
2002-11-20 08:37:59 51°22.591 3°8.534 10.562947 3.531821 31.603153  
2002-11-20 08:38:04 51°22.596 3°8.562 10.674499 3.530767 31.595475  
2002-11-20 08:38:08 51°22.6 3°8.584 10.599532 3.529819 31.586749  
2002-11-20 08:38:14 51°22.607 3°8.616 10.443006 3.528766 31.576279  
2002-11-20 08:38:19 51°22.612 3°8.644 10.443006 3.528766 31.576279  
2002-11-20 08:38:24 51°22.617 3°8.671 10.519222 3.527817 31.568252  
2002-11-20 08:38:28 51°22.622 3°8.693 10.481335 3.527396 31.566156  
2002-11-20 08:38:32 51°22.626 3°8.715 10.71311 3.526553 31.558477  
2002-11-20 08:38:38 51°22.632 3°8.748 10.669532 3.526132 31.555684  
2002-11-20 08:38:43 51°22.638 3°8.776 10.557832 3.525394 31.548355  
2002-11-20 08:38:48 51°22.643 3°8.803 10.557832 3.525394 31.548355  
2002-11-20 08:38:53 51°22.648 3°8.831 10.634286 3.524657 31.541026  
2002-11-20 08:38:58 51°22.653 3°8.858 10.593212 3.524341 31.539279  
2002-11-20 08:39:03 51°22.659 3°8.885 10.552391 3.524235 31.538232  
2002-11-20 08:39:08 51°22.664 3°8.913 10.551693 3.523603 31.533344  
2002-11-20 08:39:12 51°22.668 3°8.935 10.626807 3.523709 31.534391  
2002-11-20 08:39:19 51°22.675 3°8.973 10.626807 3.523709 31.534391  
2002-11-20 08:39:24 51°22.68 3°9 10.548112 3.523498 31.532297  
2002-11-20 08:39:28 51°22.684 3°9.02 10.469415 3.522866 31.527408  
2002-11-20 08:39:32 51°22.687 3°9.039 10.5456 3.522339 31.522173  
2002-11-20 08:39:39 51°22.691 3°9.07 10.550623 3.521601 31.515541  
2002-11-20 08:39:44 51°22.693 3°9.09 10.546065 3.520759 31.508558  
2002-11-20 08:39:48 51°22.695 3°9.106 10.546065 3.520759 31.508558  
2002-11-20 08:39:52 51°22.696 3°9.12 10.617515 3.519073 31.494591  
2002-11-20 08:39:59 51°22.697 3°9.144 10.425581 3.517703 31.482372  
2002-11-20 08:40:03 51°22.697 3°9.156 10.53332 3.516861 31.472605  
2002-11-20 08:40:08 51°22.697 3°9.17 10.610639 3.516755 31.470167  
2002-11-20 08:40:12 51°22.697 3°9.181 10.455304 3.516018 31.462839  
2002-11-20 08:40:18 51°22.695 3°9.196 10.455304 3.516018 31.462839  
2002-11-20 08:40:23 51°22.695 3°9.208 10.529644 3.514437 31.450613  
2002-11-20 08:40:28 51°22.693 3°9.219 10.566155 3.513279 31.441878  
2002-11-20 08:40:33 51°22.692 3°9.229 10.602414 3.511804 31.430001  
2002-11-20 08:40:38 51°22.69 3°9.239 10.525178 3.510961 31.4251  
2002-11-20 08:40:43 51°22.689 3°9.248 10.565039 3.510329 31.420207  
2002-11-20 08:40:48 51°22.688 3°9.257 10.565039 3.510329 31.420207  
2002-11-20 08:40:54 51°22.686 3°9.267 10.411227 3.509486 31.413221  
2002-11-20 08:40:58 51°22.685 3°9.273 10.488318 3.508959 31.410764  
2002-11-20 08:41:03 51°22.684 3°9.28 10.411414 3.508222 31.404824  
2002-11-20 08:41:08 51°22.683 3°9.286 10.60088 3.5078 31.40133  
2002-11-20 08:41:14 51°22.681 3°9.294 10.412486 3.507379 31.397836  
2002-11-20 08:41:19 51°22.68 3°9.3 10.412486 3.507379 31.397836  
2002-11-20 08:41:23 51°22.679 3°9.304 10.602088 3.506536 31.38946  
2002-11-20 08:41:28 51°22.678 3°9.309 10.374676 3.506958 31.394342  
2002-11-20 08:41:32 51°22.678 3°9.314 10.679605 3.506641 31.391895  
2002-11-20 08:41:38 51°22.677 3°9.32 10.602274 3.506325 31.388754  
2002-11-20 08:41:44 51°22.677 3°9.325 10.566016 3.505904 31.384566  
2002-11-20 08:41:48 51°22.676 3°9.329 10.566016 3.505904 31.384566  
2002-11-20 08:41:54 51°22.676 3°9.333 10.60181 3.50622 31.388401  
2002-11-20 08:41:58 51°22.676 3°9.336 10.413418 3.506009 31.385613  
2002-11-20 08:42:03 51°22.675 3°9.339 10.603064 3.506009 31.385613  
2002-11-20 08:42:08 51°22.675 3°9.342 10.489715 3.505904 31.38526  
2002-11-20 08:42:14 51°22.675 3°9.346 10.452462 3.505799 31.382824  
2002-11-20 08:42:19 51°22.675 3°9.349 10.452462 3.505799 31.382824  
2002-11-20 08:42:23 51°22.675 3°9.351 10.528295 3.505799 31.382824  
2002-11-20 08:42:28 51°22.675 3°9.354 10.569271 3.505377 31.377942  
2002-11-20 08:42:32 51°22.675 3°9.355 10.489715 3.506115 31.384577  
2002-11-20 08:42:39 51°22.675 3°9.359 10.452975 3.505904 31.382483  
2002-11-20 08:42:43 51°22.675 3°9.361 10.377941 3.505588 31.379342  
2002-11-20 08:42:48 51°22.675 3°9.363 10.377941 3.505588 31.379342  
2002-11-20 08:42:53 51°22.675 3°9.365 10.372251 3.505377 31.378636  
2002-11-20 08:42:58 51°22.676 3°9.367 10.370806 3.505272 31.377589  
2002-11-20 08:43:03 51°22.676 3°9.369 10.369593 3.505167 31.376542  
2002-11-20 08:43:08 51°22.677 3°9.371 10.372298 3.505272 31.375507  
2002-11-20 08:43:14 51°22.677 3°9.373 10.374536 3.505588 31.375872  
2002-11-20 08:43:18 51°22.677 3°9.375 10.374536 3.505588 31.375872  
2002-11-20 08:43:23 51°22.677 3°9.376 10.379386 3.504956 31.369591  
2002-11-20 08:43:28 51°22.677 3°9.378 10.385914 3.50485 31.368544  
2002-11-20 08:43:34 51°22.678 3°9.38 10.43285 3.504324 31.364004  
2002-11-20 08:43:39 51°22.678 3°9.381 10.392162 3.504113 31.36191  
2002-11-20 08:43:43 51°22.678 3°9.382 10.394353 3.504113 31.360523  
2002-11-20 08:43:48 51°22.679 3°9.383 10.394353 3.504113 31.360523  
2002-11-20 08:43:52 51°22.679 3°9.384 10.392488 3.505061 31.368557  
2002-11-20 08:43:59 51°22.679 3°9.386 10.393374 3.50759 31.390904  
2002-11-20 08:44:04 51°22.679 3°9.387 10.394213 3.510013 31.410121  
2002-11-20 08:44:08 51°22.68 3°9.388 10.394213 3.511909 31.426879  
2002-11-20 08:44:14 51°22.68 3°9.389 10.392581 3.512225 31.42724  
2002-11-20 08:44:19 51°22.681 3°9.39 10.392581 3.512225 31.42724  
2002-11-20 08:44:24 51°22.681 3°9.391 10.392022 3.512752 31.431084  
2002-11-20 08:44:28 51°22.681 3°9.391 10.390577 3.512962 31.433873  
2002-11-20 08:44:32 51°22.682 3°9.392 10.391509 3.513595 31.439458  
2002-11-20 08:44:39 51°22.683 3°9.392 10.39095 3.514016 31.443645  
2002-11-20 08:44:43 51°22.683 3°9.393 10.391276 3.513805 31.440857  
2002-11-20 08:44:48 51°22.683 3°9.393 10.391276 3.513805 31.440857  
2002-11-20 08:44:54 51°22.685 3°9.394 10.392022 3.513173 31.435271  
2002-11-20 08:44:59 51°22.685 3°9.395 10.392208 3.513068 31.434919  
2002-11-20 08:45:04 51°22.686 3°9.395 10.431964 3.512541 31.429686  
2002-11-20 08:45:08 51°22.686 3°9.395 10.392861 3.512225 31.427935  
2002-11-20 08:45:14 51°22.687 3°9.396 10.395425 3.511909 31.4241  
2002-11-20 08:45:18 51°22.687 3°9.396 10.395425 3.511909 31.4241  
2002-11-20 08:45:23 51°22.688 3°9.396 10.396218 3.512225 31.427935  
2002-11-20 08:45:28 51°22.689 3°9.397 10.397756 3.512646 31.431427  
2002-11-20 08:45:34 51°22.689 3°9.397 10.398036 3.512646 31.430038  
2002-11-20 08:45:39 51°22.69 3°9.397 10.399294 3.513173 31.434576  
2002-11-20 08:45:43 51°22.691 3°9.398 10.398735 3.513489 31.437717  
2002-11-20 08:45:48 51°22.692 3°9.399 10.398735 3.513489 31.437717  
2002-11-20 08:45:53 51°22.693 3°9.4 10.397616 3.513805 31.439467  
2002-11-20 08:45:59 51°22.694 3°9.401 10.396824 3.514437 31.444357  
2002-11-20 08:46:04 51°22.695 3°9.401 10.394633 3.515175 31.450294  
2002-11-20 08:46:08 51°22.695 3°9.402 10.392302 3.515385 31.452387  
2002-11-20 08:46:14 51°22.697 3°9.403 10.389411 3.515491 31.452738  
2002-11-20 08:46:19 51°22.697 3°9.404 10.389411 3.515491 31.452738  
2002-11-20 08:46:23 51°22.698 3°9.406 10.385774 3.515385 31.450997  
2002-11-20 08:46:28 51°22.699 3°9.408 10.384049 3.514964 31.447505  
2002-11-20 08:46:32 51°22.699 3°9.41 10.383256 3.514437 31.443662  
2002-11-20 08:46:38 51°22.7 3°9.413 10.382277 3.513805 31.438077  
2002-11-20 08:46:44 51°22.7 3°9.416 10.380459 3.512857 31.430047  
2002-11-20 08:46:48 51°22.701 3°9.417 10.380459 3.512857 31.430047  
2002-11-20 08:46:52 51°22.701 3°9.419 10.378687 3.511382 31.418172  
2002-11-20 08:46:58 51°22.701 3°9.42 10.374163 3.510118 31.407696  
2002-11-20 08:47:03 51°22.701 3°9.42 10.370572 3.509802 31.405944  
2002-11-20 08:47:08 51°22.701 3°9.419 10.408151 3.508643 31.395819  
2002-11-20 08:47:12 51°22.701 3°9.418 10.370199 3.507379 31.385341  
2002-11-20 08:47:18 51°22.701 3°9.416 10.370199 3.507379 31.385341  
2002-11-20 08:47:23 51°22.701 3°9.415 10.370526 3.506852 31.382189  
2002-11-20 08:47:28 51°22.701 3°9.414 10.370806 3.505904 31.373462  
2002-11-20 08:47:33 51°22.701 3°9.414 10.370199 3.50464 31.36437  
2002-11-20 08:47:38 51°22.701 3°9.416 10.370572 3.504429 31.363663  
2002-11-20 08:47:43 51°22.7 3°9.418 10.371132 3.504113 31.36191